createdAt,value
2022-11-16T01:13:30.565Z,73.07
2022-11-16T01:17:02.183Z,71.25
2022-11-16T01:20:09.070Z,80.07
2022-11-16T01:23:13.063Z,87.53
2022-11-16T01:26:16.894Z,107.07
2022-11-16T01:29:20.804Z,96.13
2022-11-16T01:32:30.357Z,119.05
2022-11-16T01:35:33.514Z,110.32
2022-11-16T01:38:37.856Z,156.23
2022-11-16T01:41:44.737Z,127.82
2022-11-16T01:44:47.818Z,162.30
2022-11-16T01:47:54.926Z,168.57
2022-11-16T01:51:02.875Z,157.27
2022-11-16T01:54:10.830Z,133.85
2022-11-16T01:57:23.905Z,146.85
2022-11-16T02:00:39.214Z,137.85
2022-11-16T02:04:01.415Z,159.90
2022-11-16T02:08:11.901Z,176.88
2022-11-16T02:11:24.588Z,223.48
2022-11-16T02:14:52.530Z,226.13
2022-11-16T02:18:09.425Z,233.82
2022-11-16T02:21:27.498Z,226.60
2022-11-16T02:24:53.300Z,233.63
2022-11-16T02:28:12.058Z,208.68
2022-11-16T02:31:20.978Z,185.90
2022-11-16T02:34:29.782Z,182.35
2022-11-16T02:37:38.922Z,142.90
2022-11-16T02:40:47.406Z,159.27
2022-11-16T02:44:05.145Z,208.43
2022-11-16T02:47:14.619Z,200.93
2022-11-16T02:50:21.882Z,201.07
2022-11-16T02:53:26.961Z,189.00
2022-11-16T02:56:45.584Z,168.15
2022-11-16T02:59:53.641Z,174.95
2022-11-16T03:03:17.463Z,180.17
2022-11-16T03:06:29.600Z,163.57
2022-11-16T03:09:37.893Z,146.25
2022-11-16T03:12:42.613Z,144.40
2022-11-16T03:15:49.231Z,146.57
2022-11-16T03:18:56.383Z,154.73
2022-11-16T03:22:08.149Z,148.35
2022-11-16T03:25:19.887Z,155.57
2022-11-16T03:28:34.624Z,128.02
2022-11-16T03:31:48.707Z,125.80
2022-11-16T03:35:32.115Z,137.88
2022-11-16T03:38:39.904Z,113.88
2022-11-16T03:41:47.281Z,96.85
2022-11-16T03:44:51.778Z,87.63
2022-11-16T03:47:55.168Z,100.35
2022-11-16T03:50:59.036Z,120.03
2022-11-16T03:54:04.134Z,119.40
2022-11-16T03:57:15.860Z,122.22
2022-11-16T04:00:21.643Z,131.73
2022-11-16T04:03:27.377Z,134.85
2022-11-16T04:06:49.770Z,140.82
2022-11-16T04:10:11.478Z,116.90
2022-11-16T04:13:36.258Z,126.22
2022-11-16T04:16:57.727Z,130.90
2022-11-16T04:20:19.501Z,134.43
2022-11-16T04:23:42.183Z,143.25
2022-11-16T04:27:09.010Z,141.27
2022-11-16T04:30:14.452Z,138.75
2022-11-16T04:33:39.266Z,133.52
2022-11-16T04:37:03.862Z,147.35
2022-11-16T04:40:15.451Z,149.90
2022-11-16T04:43:33.822Z,139.38
2022-11-16T04:47:00.121Z,152.25
2022-11-16T04:50:05.173Z,150.90
2022-11-16T04:53:10.823Z,157.23
2022-11-16T04:56:22.314Z,162.18
2022-11-16T04:59:26.333Z,151.07
2022-11-16T05:02:29.930Z,137.82
2022-11-16T05:05:36.110Z,127.70
2022-11-16T05:08:41.504Z,118.95
2022-11-16T05:11:47.611Z,120.03
2022-11-16T05:14:52.664Z,95.20
2022-11-16T05:18:00.763Z,107.07
2022-11-16T05:21:07.285Z,102.75
2022-11-16T05:24:38.068Z,103.20
2022-11-16T05:27:43.992Z,99.65
2022-11-16T05:30:51.025Z,101.93
2022-11-16T05:33:59.724Z,87.32
2022-11-16T05:37:06.221Z,71.13
2022-11-16T05:40:13.385Z,86.55
2022-11-16T05:43:27.060Z,65.18
2022-11-16T05:46:51.225Z,67.43
2022-11-16T05:49:56.400Z,71.47
2022-11-16T05:53:05.511Z,61.83
2022-11-16T05:56:13.372Z,54.42
2022-11-16T05:59:21.116Z,51.17
2022-11-16T06:02:30.308Z,53.78
2022-11-16T06:05:40.905Z,53.08
2022-11-16T06:08:49.422Z,59.00
2022-11-16T06:12:01.283Z,48.17
2022-11-16T06:15:08.521Z,43.22
2022-11-16T06:18:14.443Z,44.73
2022-11-16T06:21:21.372Z,49.35
2022-11-16T06:24:26.966Z,52.53
2022-11-16T06:27:31.334Z,54.75
2022-11-16T06:30:35.553Z,56.85
2022-11-16T06:33:40.040Z,71.57
2022-11-16T06:36:50.365Z,74.50
2022-11-16T06:39:54.593Z,60.03
2022-11-16T06:42:59.373Z,58.78
2022-11-16T06:46:02.581Z,48.03
2022-11-16T06:49:08.390Z,51.22
2022-11-16T06:52:12.510Z,46.80
2022-11-16T06:55:17.335Z,41.40
2022-11-16T06:58:20.402Z,43.13
2022-11-16T07:01:23.323Z,42.40
2022-11-16T07:04:32.198Z,38.92
2022-11-16T07:07:36.654Z,28.75
2022-11-16T07:10:40.080Z,37.55
2022-11-16T07:13:43.980Z,39.70
2022-11-16T07:16:48.561Z,34.40
2022-11-16T07:19:52.009Z,26.23
2022-11-16T07:22:59.531Z,26.98
2022-11-16T07:26:09.386Z,28.15
2022-11-16T07:29:25.697Z,20.70
2022-11-16T07:33:00.368Z,28.08
2022-11-16T07:36:27.214Z,32.42
2022-11-16T07:39:51.614Z,28.48
2022-11-16T07:42:59.531Z,25.10
2022-11-16T07:46:47.170Z,22.08
2022-11-16T07:49:52.893Z,26.60
2022-11-16T07:52:59.799Z,20.10
2022-11-16T07:56:04.075Z,27.77
2022-11-16T07:59:09.832Z,34.17
2022-11-16T08:02:17.655Z,41.22
2022-11-16T08:05:21.315Z,37.63
2022-11-16T08:08:26.363Z,28.15
2022-11-16T08:11:29.641Z,29.25
2022-11-16T08:14:33.504Z,20.95
2022-11-16T08:17:38.260Z,16.42
2022-11-16T08:20:43.832Z,21.08
2022-11-16T08:23:47.819Z,16.35
2022-11-16T08:26:51.293Z,25.58
2022-11-16T08:29:55.549Z,24.35
2022-11-16T08:32:59.328Z,15.75
2022-11-16T08:36:14.463Z,17.80
2022-11-16T08:39:21.938Z,15.48
2022-11-16T08:42:26.010Z,22.73
2022-11-16T08:45:37.168Z,17.90
2022-11-16T08:48:41.068Z,15.93
2022-11-16T08:51:46.090Z,27.67
2022-11-16T08:54:49.731Z,24.45
2022-11-16T08:57:53.874Z,26.33
2022-11-16T09:00:57.081Z,23.55
2022-11-16T09:04:01.275Z,28.42
2022-11-16T09:07:05.217Z,30.27
2022-11-16T09:10:09.183Z,49.40
2022-11-16T09:13:12.263Z,65.75
2022-11-16T09:16:21.244Z,75.80
2022-11-16T09:19:24.960Z,56.20
2022-11-16T09:22:28.872Z,51.35
2022-11-16T09:25:32.312Z,47.22
2022-11-16T09:28:42.411Z,34.72
2022-11-16T09:35:11.584Z,22.02
2022-11-16T09:38:30.388Z,27.33
2022-11-16T09:42:20.987Z,33.05
2022-11-16T09:45:38.715Z,30.55
2022-11-16T09:48:51.360Z,28.75
2022-11-16T09:52:02.719Z,28.30
2022-11-16T09:55:48.232Z,39.72
2022-11-16T09:59:23.363Z,21.42
2022-11-16T10:02:51.871Z,18.55
2022-11-16T10:06:21.175Z,18.20
2022-11-16T10:09:35.239Z,17.40
2022-11-16T10:13:26.123Z,17.08
2022-11-16T10:16:39.353Z,18.52
2022-11-16T10:20:04.062Z,15.10
2022-11-16T10:23:19.238Z,14.02
2022-11-16T10:26:39.642Z,13.90
2022-11-16T10:29:58.696Z,15.07
2022-11-16T10:33:20.337Z,14.13
2022-11-16T10:36:28.055Z,10.38
2022-11-16T10:39:34.939Z,11.73
2022-11-16T10:42:41.495Z,11.25
2022-11-16T10:46:17.803Z,21.20
2022-11-16T10:49:48.366Z,12.23
2022-11-16T10:52:54.398Z,14.13
2022-11-16T10:56:22.835Z,16.77
2022-11-16T10:59:45.177Z,15.88
2022-11-16T11:02:51.190Z,15.35
2022-11-16T11:05:56.380Z,22.17
2022-11-16T11:09:22.923Z,17.95
2022-11-16T11:12:41.271Z,22.25
2022-11-16T11:15:49.892Z,12.93
2022-11-16T11:18:54.816Z,38.65
2022-11-16T11:22:04.382Z,114.65
2022-11-16T11:25:27.308Z,145.27
2022-11-16T11:28:35.303Z,194.23
2022-11-16T11:31:51.487Z,203.30
2022-11-16T11:35:02.841Z,144.27
2022-11-16T11:38:16.053Z,96.13
2022-11-16T11:41:22.536Z,131.02
2022-11-16T11:45:00.849Z,160.40
2022-11-16T11:48:43.064Z,157.50
2022-11-16T11:51:51.534Z,94.05
2022-11-16T11:55:00.014Z,75.18
2022-11-16T11:58:16.299Z,81.68
2022-11-16T12:02:07.016Z,91.45
2022-11-16T12:05:49.427Z,92.07
2022-11-16T12:09:10.223Z,90.18
2022-11-16T12:12:25.886Z,81.90
2022-11-16T12:15:53.685Z,77.93
2022-11-16T12:19:12.777Z,77.20
2022-11-16T12:22:48.485Z,77.30
2022-11-16T12:26:11.081Z,71.43
2022-11-16T12:29:30.100Z,73.57
2022-11-16T12:32:42.530Z,83.47
2022-11-16T12:35:57.561Z,72.60
2022-11-16T12:39:27.309Z,67.93
2022-11-16T12:42:42.733Z,69.30
2022-11-16T12:45:58.660Z,64.35
2022-11-16T12:49:20.262Z,76.30
2022-11-16T12:52:47.734Z,75.65
2022-11-16T12:56:08.341Z,85.07
2022-11-16T12:59:26.281Z,76.93
2022-11-16T13:02:54.841Z,76.93
2022-11-16T13:06:01.279Z,87.32
2022-11-16T13:09:21.468Z,79.18
2022-11-16T13:12:27.323Z,97.55
2022-11-16T13:15:38.600Z,95.22
2022-11-16T13:18:43.797Z,88.25
2022-11-16T13:22:08.588Z,93.00
2022-11-16T13:25:30.730Z,108.10
2022-11-16T13:29:00.856Z,101.57
2022-11-16T13:32:15.863Z,121.82
2022-11-16T13:35:19.644Z,119.32
2022-11-16T13:38:53.341Z,140.40
2022-11-16T13:42:14.093Z,155.25
2022-11-16T13:45:23.395Z,136.48
2022-11-16T13:48:36.689Z,121.05
2022-11-16T13:51:40.412Z,116.72
2022-11-16T13:54:50.006Z,105.72
2022-11-16T13:57:57.115Z,82.93
2022-11-16T14:01:09.000Z,88.43
2022-11-16T14:04:42.957Z,102.03
2022-11-16T14:07:51.165Z,85.30
2022-11-16T14:10:54.547Z,88.22
2022-11-16T14:14:01.543Z,86.50
2022-11-16T14:17:04.910Z,81.80
2022-11-16T14:20:14.454Z,95.53
2022-11-16T14:23:36.889Z,92.82
2022-11-16T14:26:47.258Z,85.65
2022-11-16T14:30:12.306Z,71.47
2022-11-16T14:33:28.126Z,87.47
2022-11-16T14:36:45.859Z,81.68
2022-11-16T14:39:52.180Z,83.65
2022-11-16T14:43:16.085Z,81.68
2022-11-16T14:46:28.591Z,83.00
2022-11-16T14:49:35.351Z,78.18
2022-11-16T14:52:45.127Z,92.38
2022-11-16T14:55:49.306Z,91.88
2022-11-16T14:58:53.956Z,81.50
2022-11-16T15:01:58.326Z,89.57
2022-11-16T15:05:01.909Z,83.30
2022-11-16T15:08:16.509Z,90.40
2022-11-16T15:11:51.619Z,84.85
2022-11-16T15:14:58.369Z,100.13
2022-11-16T15:18:04.704Z,86.43
2022-11-16T15:21:23.386Z,86.35
2022-11-16T15:24:33.153Z,95.53
2022-11-16T15:27:41.021Z,118.75
2022-11-16T15:30:49.280Z,94.93
2022-11-16T15:33:53.128Z,99.68
2022-11-16T15:36:56.472Z,100.25
2022-11-16T15:40:03.138Z,103.95
2022-11-16T15:43:07.687Z,112.35
2022-11-16T15:46:15.833Z,107.25
2022-11-16T15:49:39.497Z,93.00
2022-11-16T15:52:49.121Z,85.90
2022-11-16T15:55:53.559Z,87.40
2022-11-16T15:59:02.414Z,86.78
2022-11-16T16:02:07.183Z,88.63
2022-11-16T16:05:23.924Z,73.55
2022-11-16T16:08:34.717Z,91.05
2022-11-16T16:11:38.498Z,86.00
2022-11-16T16:14:43.729Z,84.05
2022-11-16T16:17:48.685Z,81.18
2022-11-16T16:20:53.012Z,75.93
2022-11-16T16:23:57.918Z,76.07
2022-11-16T16:27:03.187Z,72.85
2022-11-16T16:30:07.899Z,82.78
2022-11-16T16:33:23.396Z,61.47
2022-11-16T16:36:30.785Z,80.20
2022-11-16T16:39:37.580Z,60.50
2022-11-16T16:42:44.046Z,68.07
2022-11-16T16:45:52.446Z,80.20
2022-11-16T16:48:57.814Z,72.72
2022-11-16T16:52:03.749Z,54.05
2022-11-16T16:55:09.514Z,38.40
2022-11-16T16:58:16.272Z,54.22
2022-11-16T17:01:21.925Z,47.72
2022-11-16T17:04:27.966Z,38.60
2022-11-16T17:07:33.563Z,34.58
2022-11-16T17:10:40.652Z,31.20
2022-11-16T17:13:45.881Z,36.22
2022-11-16T17:16:51.082Z,30.98
2022-11-16T17:19:55.316Z,42.72
2022-11-16T17:23:00.870Z,41.33
2022-11-16T17:26:09.530Z,51.92
2022-11-16T17:29:18.660Z,47.17
2022-11-16T17:32:27.192Z,53.70
2022-11-16T17:35:33.857Z,45.08
2022-11-16T17:38:40.008Z,45.95
2022-11-16T17:41:51.615Z,41.85
2022-11-16T17:44:57.097Z,42.63
2022-11-16T17:48:02.102Z,24.92
2022-11-16T17:51:07.015Z,48.47
2022-11-16T17:54:15.561Z,38.58
2022-11-16T17:57:20.705Z,31.73
2022-11-16T18:00:25.894Z,37.15
2022-11-16T18:03:30.437Z,44.38
2022-11-16T18:06:36.816Z,29.05
2022-11-16T18:09:43.269Z,27.50
2022-11-16T18:12:49.515Z,25.75
2022-11-16T18:15:54.190Z,35.55
2022-11-16T18:19:01.556Z,28.98
2022-11-16T18:22:06.641Z,34.88
2022-11-16T18:25:12.080Z,38.67
2022-11-16T18:28:20.092Z,29.63
2022-11-16T18:31:27.986Z,22.77
2022-11-16T18:34:33.143Z,25.38
2022-11-16T18:37:38.467Z,21.27
2022-11-16T18:40:43.528Z,23.73
2022-11-16T18:43:54.141Z,16.73
2022-11-16T18:46:58.541Z,22.02
2022-11-16T18:50:03.409Z,20.60
2022-11-16T18:53:08.571Z,17.08
2022-11-16T18:56:13.619Z,19.52
2022-11-16T18:59:18.534Z,11.43
2022-11-16T19:02:24.319Z,14.52
2022-11-16T19:05:29.839Z,14.52
2022-11-16T19:08:35.429Z,10.73
2022-11-16T19:11:41.546Z,12.02
2022-11-16T19:14:47.080Z,12.38
2022-11-16T19:18:19.387Z,9.07
2022-11-16T19:21:20.159Z,15.43
2022-11-16T19:24:25.485Z,5.82
2022-11-16T19:27:32.069Z,14.23
2022-11-16T19:30:37.358Z,8.48
2022-11-16T19:33:43.225Z,6.90
2022-11-16T19:36:48.128Z,12.50
2022-11-16T19:39:52.700Z,4.93
2022-11-16T19:42:56.681Z,9.90
2022-11-16T19:46:10.458Z,7.65
2022-11-16T19:49:20.266Z,18.08
2022-11-16T19:52:24.770Z,14.45
2022-11-16T19:55:28.811Z,17.90
2022-11-16T19:58:34.948Z,14.88
2022-11-16T20:01:39.546Z,16.60
2022-11-16T20:04:44.905Z,15.30
2022-11-16T20:07:50.767Z,22.02
2022-11-16T20:10:54.368Z,12.90
2022-11-16T20:13:59.951Z,13.13
2022-11-16T20:17:03.320Z,15.68
2022-11-16T20:20:07.729Z,21.75
2022-11-16T20:23:15.162Z,17.00
2022-11-16T20:26:20.217Z,20.83
2022-11-16T20:29:25.036Z,20.92
2022-11-16T20:32:32.792Z,14.82
2022-11-16T20:38:40.693Z,20.15
2022-11-16T20:41:45.041Z,18.38
2022-11-16T20:44:50.894Z,21.08
2022-11-16T20:47:55.651Z,23.25
2022-11-16T20:51:01.534Z,24.48
2022-11-16T20:54:06.048Z,17.55
2022-11-16T20:57:11.195Z,22.55
2022-11-16T21:00:16.212Z,18.67
2022-11-16T21:03:20.255Z,19.23
2022-11-16T21:06:25.070Z,20.33
2022-11-16T21:09:49.586Z,9.20
2022-11-16T21:13:11.875Z,15.88
2022-11-16T21:16:17.020Z,17.67
2022-11-16T21:19:22.498Z,16.70
2022-11-16T21:22:32.309Z,17.13
2022-11-16T21:25:38.869Z,14.10
2022-11-16T21:28:47.216Z,14.27
2022-11-16T21:31:51.089Z,11.07
2022-11-16T21:34:56.280Z,13.20
2022-11-16T21:38:00.200Z,12.45
2022-11-16T21:41:07.470Z,11.68
2022-11-16T21:47:18.460Z,11.38
2022-11-16T21:50:33.750Z,12.98
2022-11-16T21:53:39.470Z,5.35
2022-11-16T21:56:44.144Z,10.45
2022-11-16T21:59:49.388Z,10.20
2022-11-16T22:02:53.327Z,13.70
2022-11-16T22:06:18.411Z,14.95
2022-11-16T22:09:22.825Z,9.23
2022-11-16T22:12:29.511Z,10.02
2022-11-16T22:15:34.227Z,4.82
2022-11-16T22:18:39.661Z,7.88
2022-11-16T22:21:45.644Z,7.30
2022-11-16T22:24:50.243Z,9.00
2022-11-16T22:31:19.397Z,8.00
2022-11-16T22:34:24.031Z,12.38
2022-11-16T22:37:28.558Z,7.63
2022-11-16T22:40:32.521Z,11.02
2022-11-16T22:43:40.607Z,3.15
2022-11-16T22:46:51.759Z,6.35
2022-11-16T22:50:02.231Z,3.70
2022-11-16T22:53:08.186Z,4.60
